sensor_id;sensor_type;location;lat;lon;timestamp;temperature;humidity
24618;DHT22;12762;51.730;5.356;2023-04-12T00:01:01;10.00;67.00
24618;DHT22;12762;51.730;5.356;2023-04-12T00:03:27;9.90;68.40
24618;DHT22;12762;51.730;5.356;2023-04-12T00:05:56;9.90;68.50
24618;DHT22;12762;51.730;5.356;2023-04-12T00:08:23;9.90;68.70
24618;DHT22;12762;51.730;5.356;2023-04-12T00:10:52;9.90;69.20
24618;DHT22;12762;51.730;5.356;2023-04-12T00:13:19;9.80;69.10
24618;DHT22;12762;51.730;5.356;2023-04-12T00:15:46;9.80;69.20
24618;DHT22;12762;51.730;5.356;2023-04-12T00:18:13;9.80;69.30
24618;DHT22;12762;51.730;5.356;2023-04-12T00:20:40;9.80;69.50
24618;DHT22;12762;51.730;5.356;2023-04-12T00:23:07;9.80;69.50
24618;DHT22;12762;51.730;5.356;2023-04-12T00:25:35;9.80;69.70
24618;DHT22;12762;51.730;5.356;2023-04-12T00:28:05;9.80;69.80
24618;DHT22;12762;51.730;5.356;2023-04-12T00:30:32;9.80;70.10
24618;DHT22;12762;51.730;5.356;2023-04-12T00:32:58;9.80;70.10
24618;DHT22;12762;51.730;5.356;2023-04-12T00:35:25;9.80;71.00
24618;DHT22;12762;51.730;5.356;2023-04-12T00:37:52;9.80;70.60
24618;DHT22;12762;51.730;5.356;2023-04-12T00:40:20;9.80;70.80
24618;DHT22;12762;51.730;5.356;2023-04-12T00:42:47;9.80;70.70
24618;DHT22;12762;51.730;5.356;2023-04-12T00:45:14;9.80;70.90
24618;DHT22;12762;51.730;5.356;2023-04-12T00:47:41;9.80;71.40
24618;DHT22;12762;51.730;5.356;2023-04-12T00:50:11;9.70;72.10
24618;DHT22;12762;51.730;5.356;2023-04-12T00:52:38;9.70;71.40
24618;DHT22;12762;51.730;5.356;2023-04-12T00:55:05;9.70;71.50
24618;DHT22;12762;51.730;5.356;2023-04-12T00:57:35;9.70;71.60
24618;DHT22;12762;51.730;5.356;2023-04-12T01:00:04;9.70;71.70
24618;DHT22;12762;51.730;5.356;2023-04-12T01:02:32;9.60;71.90
24618;DHT22;12762;51.730;5.356;2023-04-12T01:05:01;9.60;72.50
24618;DHT22;12762;51.730;5.356;2023-04-12T01:07:44;9.60;72.40
24618;DHT22;12762;51.730;5.356;2023-04-12T01:10:28;9.60;71.90
24618;DHT22;12762;51.730;5.356;2023-04-12T01:16:08;9.60;71.90
24618;DHT22;12762;51.730;5.356;2023-04-12T01:18:40;9.60;72.50
24618;DHT22;12762;51.730;5.356;2023-04-12T01:21:18;9.60;72.50
24618;DHT22;12762;51.730;5.356;2023-04-12T01:24:17;9.60;72.60
24618;DHT22;12762;51.730;5.356;2023-04-12T01:26:47;9.60;72.40
24618;DHT22;12762;51.730;5.356;2023-04-12T01:29:17;9.60;72.40
24618;DHT22;12762;51.730;5.356;2023-04-12T01:31:57;9.60;72.60
24618;DHT22;12762;51.730;5.356;2023-04-12T01:34:27;9.60;72.60
24618;DHT22;12762;51.730;5.356;2023-04-12T01:36:56;9.60;73.10
24618;DHT22;12762;51.730;5.356;2023-04-12T01:39:24;9.60;72.80
24618;DHT22;12762;51.730;5.356;2023-04-12T01:41:51;9.50;72.90
24618;DHT22;12762;51.730;5.356;2023-04-12T01:44:18;9.60;73.00
24618;DHT22;12762;51.730;5.356;2023-04-12T01:46:45;9.60;73.20
24618;DHT22;12762;51.730;5.356;2023-04-12T01:49:14;9.50;73.20
24618;DHT22;12762;51.730;5.356;2023-04-12T01:52:00;9.50;73.40
24618;DHT22;12762;51.730;5.356;2023-04-12T01:54:35;9.50;73.20
24618;DHT22;12762;51.730;5.356;2023-04-12T01:57:04;9.50;73.50
24618;DHT22;12762;51.730;5.356;2023-04-12T01:59:35;9.50;73.80
24618;DHT22;12762;51.730;5.356;2023-04-12T02:02:04;9.50;73.90
24618;DHT22;12762;51.730;5.356;2023-04-12T02:04:32;9.50;73.60
24618;DHT22;12762;51.730;5.356;2023-04-12T02:07:00;9.50;74.20
24618;DHT22;12762;51.730;5.356;2023-04-12T02:09:27;9.50;74.00
24618;DHT22;12762;51.730;5.356;2023-04-12T02:11:57;9.50;74.20
24618;DHT22;12762;51.730;5.356;2023-04-12T02:14:24;9.50;74.30
24618;DHT22;12762;51.730;5.356;2023-04-12T02:16:52;9.50;74.40
24618;DHT22;12762;51.730;5.356;2023-04-12T02:19:21;9.50;74.50
24618;DHT22;12762;51.730;5.356;2023-04-12T02:21:48;9.50;74.50
24618;DHT22;12762;51.730;5.356;2023-04-12T02:24:15;9.50;74.30
24618;DHT22;12762;51.730;5.356;2023-04-12T02:26:42;9.50;74.60
24618;DHT22;12762;51.730;5.356;2023-04-12T02:29:09;9.50;74.80
24618;DHT22;12762;51.730;5.356;2023-04-12T02:31:36;9.50;75.10
24618;DHT22;12762;51.730;5.356;2023-04-12T02:34:07;9.50;74.50
24618;DHT22;12762;51.730;5.356;2023-04-12T02:36:34;9.50;75.10
24618;DHT22;12762;51.730;5.356;2023-04-12T02:39:03;9.50;74.80
24618;DHT22;12762;51.730;5.356;2023-04-12T02:41:30;9.50;74.60
24618;DHT22;12762;51.730;5.356;2023-04-12T02:43:57;9.50;74.90
24618;DHT22;12762;51.730;5.356;2023-04-12T02:46:24;9.50;74.90
24618;DHT22;12762;51.730;5.356;2023-04-12T02:48:53;9.50;75.20
24618;DHT22;12762;51.730;5.356;2023-04-12T02:51:19;9.50;75.60
24618;DHT22;12762;51.730;5.356;2023-04-12T02:53:46;9.50;75.90
24618;DHT22;12762;51.730;5.356;2023-04-12T02:56:13;9.40;75.30
24618;DHT22;12762;51.730;5.356;2023-04-12T02:58:41;9.40;75.70
24618;DHT22;12762;51.730;5.356;2023-04-12T03:01:07;9.40;75.40
24618;DHT22;12762;51.730;5.356;2023-04-12T03:03:34;9.40;75.20
24618;DHT22;12762;51.730;5.356;2023-04-12T03:06:01;9.40;75.30
24618;DHT22;12762;51.730;5.356;2023-04-12T03:08:29;9.40;75.40
24618;DHT22;12762;51.730;5.356;2023-04-12T03:10:56;9.40;75.60
24618;DHT22;12762;51.730;5.356;2023-04-12T03:13:23;9.40;75.70
24618;DHT22;12762;51.730;5.356;2023-04-12T03:15:56;9.40;75.60
24618;DHT22;12762;51.730;5.356;2023-04-12T03:18:23;9.40;75.70
24618;DHT22;12762;51.730;5.356;2023-04-12T03:20:50;9.40;75.80
24618;DHT22;12762;51.730;5.356;2023-04-12T03:23:23;9.40;75.60
24618;DHT22;12762;51.730;5.356;2023-04-12T03:25:50;9.40;75.70
24618;DHT22;12762;51.730;5.356;2023-04-12T03:28:16;9.40;75.80
24618;DHT22;12762;51.730;5.356;2023-04-12T03:30:46;9.40;75.80
24618;DHT22;12762;51.730;5.356;2023-04-12T03:33:13;9.40;76.00
24618;DHT22;12762;51.730;5.356;2023-04-12T03:35:40;9.40;76.00
24618;DHT22;12762;51.730;5.356;2023-04-12T03:38:07;9.40;76.30
24618;DHT22;12762;51.730;5.356;2023-04-12T03:40:34;9.30;76.00
24618;DHT22;12762;51.730;5.356;2023-04-12T03:43:01;9.30;76.40
24618;DHT22;12762;51.730;5.356;2023-04-12T03:45:27;9.30;76.30
24618;DHT22;12762;51.730;5.356;2023-04-12T03:47:54;9.30;76.80
24618;DHT22;12762;51.730;5.356;2023-04-12T03:50:21;9.30;77.20
24618;DHT22;12762;51.730;5.356;2023-04-12T03:52:59;9.30;77.10
24618;DHT22;12762;51.730;5.356;2023-04-12T03:55:26;9.20;76.80
24618;DHT22;12762;51.730;5.356;2023-04-12T03:57:53;9.20;76.80
24618;DHT22;12762;51.730;5.356;2023-04-12T04:00:22;9.20;76.80
24618;DHT22;12762;51.730;5.356;2023-04-12T04:02:52;9.20;76.90
24618;DHT22;12762;51.730;5.356;2023-04-12T04:05:19;9.30;77.00
24618;DHT22;12762;51.730;5.356;2023-04-12T04:07:46;9.30;77.30
24618;DHT22;12762;51.730;5.356;2023-04-12T04:10:12;9.30;77.20
24618;DHT22;12762;51.730;5.356;2023-04-12T04:12:39;9.30;77.20
24618;DHT22;12762;51.730;5.356;2023-04-12T04:15:06;9.30;77.30
24618;DHT22;12762;51.730;5.356;2023-04-12T04:17:33;9.30;77.50
24618;DHT22;12762;51.730;5.356;2023-04-12T04:20:00;9.30;77.50
24618;DHT22;12762;51.730;5.356;2023-04-12T04:22:27;9.30;77.50
24618;DHT22;12762;51.730;5.356;2023-04-12T04:24:54;9.30;77.80
24618;DHT22;12762;51.730;5.356;2023-04-12T04:27:22;9.30;77.80
24618;DHT22;12762;51.730;5.356;2023-04-12T04:29:51;9.30;77.80
24618;DHT22;12762;51.730;5.356;2023-04-12T04:32:18;9.30;77.90
24618;DHT22;12762;51.730;5.356;2023-04-12T04:34:45;9.30;77.90
24618;DHT22;12762;51.730;5.356;2023-04-12T04:37:14;9.30;77.90
24618;DHT22;12762;51.730;5.356;2023-04-12T04:39:41;9.30;78.30
24618;DHT22;12762;51.730;5.356;2023-04-12T04:42:08;9.30;78.20
24618;DHT22;12762;51.730;5.356;2023-04-12T04:44:36;9.30;78.10
24618;DHT22;12762;51.730;5.356;2023-04-12T04:47:03;9.30;78.10
24618;DHT22;12762;51.730;5.356;2023-04-12T04:49:32;9.30;78.10
24618;DHT22;12762;51.730;5.356;2023-04-12T04:51:59;9.30;78.20
24618;DHT22;12762;51.730;5.356;2023-04-12T04:54:26;9.30;78.30
24618;DHT22;12762;51.730;5.356;2023-04-12T04:56:53;9.30;78.30
24618;DHT22;12762;51.730;5.356;2023-04-12T04:59:19;9.30;79.20
24618;DHT22;12762;51.730;5.356;2023-04-12T05:01:46;9.30;78.50
24618;DHT22;12762;51.730;5.356;2023-04-12T05:04:13;9.30;78.50
24618;DHT22;12762;51.730;5.356;2023-04-12T05:06:40;9.30;78.60
24618;DHT22;12762;51.730;5.356;2023-04-12T05:09:07;9.30;79.40
24618;DHT22;12762;51.730;5.356;2023-04-12T05:11:33;9.40;78.80
24618;DHT22;12762;51.730;5.356;2023-04-12T05:14:01;9.40;78.90
24618;DHT22;12762;51.730;5.356;2023-04-12T05:16:28;9.30;78.90
24618;DHT22;12762;51.730;5.356;2023-04-12T05:18:54;9.30;79.10
24618;DHT22;12762;51.730;5.356;2023-04-12T05:21:22;9.40;79.10
24618;DHT22;12762;51.730;5.356;2023-04-12T05:23:50;9.40;79.40
24618;DHT22;12762;51.730;5.356;2023-04-12T05:26:18;9.40;79.20
24618;DHT22;12762;51.730;5.356;2023-04-12T05:28:47;9.40;79.30
24618;DHT22;12762;51.730;5.356;2023-04-12T05:31:17;9.40;79.30
24618;DHT22;12762;51.730;5.356;2023-04-12T05:33:44;9.40;79.40
24618;DHT22;12762;51.730;5.356;2023-04-12T05:36:11;9.40;79.50
24618;DHT22;12762;51.730;5.356;2023-04-12T05:38:38;9.40;79.50
24618;DHT22;12762;51.730;5.356;2023-04-12T05:41:05;9.40;79.70
24618;DHT22;12762;51.730;5.356;2023-04-12T05:43:32;9.40;79.90
24618;DHT22;12762;51.730;5.356;2023-04-12T05:45:59;9.40;79.80
24618;DHT22;12762;51.730;5.356;2023-04-12T05:48:26;9.50;80.00
24618;DHT22;12762;51.730;5.356;2023-04-12T05:50:53;9.50;80.00
24618;DHT22;12762;51.730;5.356;2023-04-12T05:53:21;9.50;79.90
24618;DHT22;12762;51.730;5.356;2023-04-12T05:55:48;9.50;80.00
24618;DHT22;12762;51.730;5.356;2023-04-12T05:58:15;9.50;80.00
24618;DHT22;12762;51.730;5.356;2023-04-12T06:00:42;9.50;80.00
24618;DHT22;12762;51.730;5.356;2023-04-12T06:03:10;9.50;80.20
24618;DHT22;12762;51.730;5.356;2023-04-12T06:05:37;9.50;80.20
24618;DHT22;12762;51.730;5.356;2023-04-12T06:08:05;9.60;80.30
24618;DHT22;12762;51.730;5.356;2023-04-12T06:10:34;9.60;80.40
24618;DHT22;12762;51.730;5.356;2023-04-12T06:13:00;9.60;80.40
24618;DHT22;12762;51.730;5.356;2023-04-12T06:15:27;9.60;80.40
24618;DHT22;12762;51.730;5.356;2023-04-12T06:17:59;9.60;80.50
24618;DHT22;12762;51.730;5.356;2023-04-12T06:20:26;9.60;80.50
24618;DHT22;12762;51.730;5.356;2023-04-12T06:22:53;9.60;80.70
24618;DHT22;12762;51.730;5.356;2023-04-12T06:25:20;9.70;80.70
24618;DHT22;12762;51.730;5.356;2023-04-12T06:27:48;9.70;80.80
24618;DHT22;12762;51.730;5.356;2023-04-12T06:30:15;9.70;80.80
24618;DHT22;12762;51.730;5.356;2023-04-12T06:32:44;9.70;80.80
24618;DHT22;12762;51.730;5.356;2023-04-12T06:35:11;9.70;80.80
24618;DHT22;12762;51.730;5.356;2023-04-12T06:37:38;9.80;80.90
24618;DHT22;12762;51.730;5.356;2023-04-12T06:40:05;9.80;80.90
24618;DHT22;12762;51.730;5.356;2023-04-12T06:42:32;9.80;81.00
24618;DHT22;12762;51.730;5.356;2023-04-12T06:45:03;9.90;81.10
24618;DHT22;12762;51.730;5.356;2023-04-12T06:47:31;10.00;80.10
24618;DHT22;12762;51.730;5.356;2023-04-12T06:49:58;10.00;80.10
24618;DHT22;12762;51.730;5.356;2023-04-12T06:52:25;10.00;80.10
24618;DHT22;12762;51.730;5.356;2023-04-12T06:54:52;10.00;80.10
24618;DHT22;12762;51.730;5.356;2023-04-12T06:57:19;10.00;80.20
24618;DHT22;12762;51.730;5.356;2023-04-12T06:59:46;10.10;80.20
24618;DHT22;12762;51.730;5.356;2023-04-12T07:02:13;10.10;81.00
24618;DHT22;12762;51.730;5.356;2023-04-12T07:04:40;10.20;80.30
24618;DHT22;12762;51.730;5.356;2023-04-12T07:07:06;10.20;80.30
24618;DHT22;12762;51.730;5.356;2023-04-12T07:09:33;10.20;80.30
24618;DHT22;12762;51.730;5.356;2023-04-12T07:12:00;10.20;80.30
24618;DHT22;12762;51.730;5.356;2023-04-12T07:14:30;10.30;80.50
24618;DHT22;12762;51.730;5.356;2023-04-12T07:16:57;10.30;80.50
24618;DHT22;12762;51.730;5.356;2023-04-12T07:19:24;10.30;80.40
24618;DHT22;12762;51.730;5.356;2023-04-12T07:21:51;10.40;80.50
24618;DHT22;12762;51.730;5.356;2023-04-12T07:24:18;10.40;80.60
24618;DHT22;12762;51.730;5.356;2023-04-12T07:26:44;10.50;80.70
24618;DHT22;12762;51.730;5.356;2023-04-12T07:29:14;10.50;80.60
24618;DHT22;12762;51.730;5.356;2023-04-12T07:31:42;10.60;80.70
24618;DHT22;12762;51.730;5.356;2023-04-12T07:34:09;10.60;80.60
24618;DHT22;12762;51.730;5.356;2023-04-12T07:36:36;10.70;80.70
24618;DHT22;12762;51.730;5.356;2023-04-12T07:39:06;10.80;80.70
24618;DHT22;12762;51.730;5.356;2023-04-12T07:41:38;10.80;80.60
24618;DHT22;12762;51.730;5.356;2023-04-12T07:44:04;10.90;80.50
24618;DHT22;12762;51.730;5.356;2023-04-12T07:46:31;10.80;80.30
24618;DHT22;12762;51.730;5.356;2023-04-12T07:48:58;10.90;80.50
24618;DHT22;12762;51.730;5.356;2023-04-12T07:51:25;10.90;80.40
24618;DHT22;12762;51.730;5.356;2023-04-12T07:53:52;10.90;80.40
24618;DHT22;12762;51.730;5.356;2023-04-12T07:56:19;10.90;80.50
24618;DHT22;12762;51.730;5.356;2023-04-12T07:58:46;10.90;80.50
24618;DHT22;12762;51.730;5.356;2023-04-12T08:01:14;11.00;80.60
24618;DHT22;12762;51.730;5.356;2023-04-12T08:03:41;11.00;80.70
24618;DHT22;12762;51.730;5.356;2023-04-12T08:06:08;11.00;80.70
24618;DHT22;12762;51.730;5.356;2023-04-12T08:08:36;11.10;80.90
24618;DHT22;12762;51.730;5.356;2023-04-12T08:11:02;11.20;80.90
24618;DHT22;12762;51.730;5.356;2023-04-12T08:13:32;11.30;80.80
24618;DHT22;12762;51.730;5.356;2023-04-12T08:15:59;11.20;80.70
24618;DHT22;12762;51.730;5.356;2023-04-12T08:18:29;11.30;80.60
24618;DHT22;12762;51.730;5.356;2023-04-12T08:20:57;11.30;80.70
24618;DHT22;12762;51.730;5.356;2023-04-12T08:23:24;11.40;80.60
24618;DHT22;12762;51.730;5.356;2023-04-12T08:25:51;11.40;80.50
24618;DHT22;12762;51.730;5.356;2023-04-12T08:28:29;11.50;80.70
24618;DHT22;12762;51.730;5.356;2023-04-12T08:30:56;11.60;80.70
24618;DHT22;12762;51.730;5.356;2023-04-12T08:33:25;11.80;80.60
24618;DHT22;12762;51.730;5.356;2023-04-12T08:35:52;11.90;80.40
24618;DHT22;12762;51.730;5.356;2023-04-12T08:38:19;11.90;80.30
24618;DHT22;12762;51.730;5.356;2023-04-12T08:41:06;12.10;80.40
24618;DHT22;12762;51.730;5.356;2023-04-12T08:43:33;12.30;80.40
24618;DHT22;12762;51.730;5.356;2023-04-12T08:46:00;12.60;80.40
24618;DHT22;12762;51.730;5.356;2023-04-12T08:48:27;12.80;79.90
24618;DHT22;12762;51.730;5.356;2023-04-12T08:50:58;13.00;79.50
24618;DHT22;12762;51.730;5.356;2023-04-12T08:53:26;13.10;79.30
24618;DHT22;12762;51.730;5.356;2023-04-12T08:55:53;13.20;79.00
24618;DHT22;12762;51.730;5.356;2023-04-12T08:58:20;13.40;78.60
24618;DHT22;12762;51.730;5.356;2023-04-12T09:00:47;13.30;78.20
24618;DHT22;12762;51.730;5.356;2023-04-12T09:03:14;13.30;78.00
24618;DHT22;12762;51.730;5.356;2023-04-12T09:05:41;13.30;78.10
24618;DHT22;12762;51.730;5.356;2023-04-12T09:08:08;13.40;78.30
24618;DHT22;12762;51.730;5.356;2023-04-12T09:10:37;13.50;78.20
24618;DHT22;12762;51.730;5.356;2023-04-12T09:13:05;13.50;77.80
24618;DHT22;12762;51.730;5.356;2023-04-12T09:15:32;13.50;77.60
24618;DHT22;12762;51.730;5.356;2023-04-12T09:18:10;13.40;77.30
24618;DHT22;12762;51.730;5.356;2023-04-12T09:20:42;13.40;77.40
24618;DHT22;12762;51.730;5.356;2023-04-12T09:23:20;13.30;77.30
24618;DHT22;12762;51.730;5.356;2023-04-12T09:25:47;13.20;77.30
24618;DHT22;12762;51.730;5.356;2023-04-12T09:28:25;13.20;77.30
24618;DHT22;12762;51.730;5.356;2023-04-12T09:30:53;13.10;77.30
24618;DHT22;12762;51.730;5.356;2023-04-12T09:33:43;13.10;77.40
24618;DHT22;12762;51.730;5.356;2023-04-12T09:36:09;13.10;77.30
24618;DHT22;12762;51.730;5.356;2023-04-12T09:38:39;13.10;77.60
24618;DHT22;12762;51.730;5.356;2023-04-12T09:41:19;13.30;78.10
24618;DHT22;12762;51.730;5.356;2023-04-12T09:43:53;13.60;77.80
24618;DHT22;12762;51.730;5.356;2023-04-12T09:46:20;13.80;77.20
24618;DHT22;12762;51.730;5.356;2023-04-12T09:48:50;13.90;76.80
24618;DHT22;12762;51.730;5.356;2023-04-12T09:51:28;14.00;76.40
24618;DHT22;12762;51.730;5.356;2023-04-12T09:54:01;14.00;75.90
24618;DHT22;12762;51.730;5.356;2023-04-12T09:56:30;14.00;75.60
24618;DHT22;12762;51.730;5.356;2023-04-12T09:59:05;14.00;75.50
24618;DHT22;12762;51.730;5.356;2023-04-12T10:01:41;14.00;75.50
24618;DHT22;12762;51.730;5.356;2023-04-12T10:04:08;13.90;75.20
24618;DHT22;12762;51.730;5.356;2023-04-12T10:06:36;13.90;75.20
24618;DHT22;12762;51.730;5.356;2023-04-12T10:09:03;14.00;75.20
24618;DHT22;12762;51.730;5.356;2023-04-12T10:11:31;14.10;75.30
24618;DHT22;12762;51.730;5.356;2023-04-12T10:14:01;14.20;75.10
24618;DHT22;12762;51.730;5.356;2023-04-12T10:16:29;14.40;74.50
24618;DHT22;12762;51.730;5.356;2023-04-12T10:19:01;14.40;74.00
24618;DHT22;12762;51.730;5.356;2023-04-12T10:21:29;14.50;73.80
24618;DHT22;12762;51.730;5.356;2023-04-12T10:23:57;14.60;73.70
24618;DHT22;12762;51.730;5.356;2023-04-12T10:26:23;14.70;73.10
24618;DHT22;12762;51.730;5.356;2023-04-12T10:29:52;14.70;73.00
24618;DHT22;12762;51.730;5.356;2023-04-12T10:34:55;15.10;72.40
24618;DHT22;12762;51.730;5.356;2023-04-12T10:40:25;15.30;71.50
24618;DHT22;12762;51.730;5.356;2023-04-12T10:43:26;15.40;71.00
24618;DHT22;12762;51.730;5.356;2023-04-12T10:45:57;15.60;71.00
24618;DHT22;12762;51.730;5.356;2023-04-12T10:48:50;15.70;70.10
24618;DHT22;12762;51.730;5.356;2023-04-12T10:51:21;15.70;69.90
24618;DHT22;12762;51.730;5.356;2023-04-12T10:54:34;15.70;69.20
24618;DHT22;12762;51.730;5.356;2023-04-12T10:56:44;15.70;68.90
24618;DHT22;12762;51.730;5.356;2023-04-12T10:59:15;15.70;68.80
24618;DHT22;12762;51.730;5.356;2023-04-12T11:04:32;15.70;67.90
24618;DHT22;12762;51.730;5.356;2023-04-12T11:07:05;15.60;67.40
24618;DHT22;12762;51.730;5.356;2023-04-12T11:09:36;15.50;67.20
24618;DHT22;12762;51.730;5.356;2023-04-12T11:14:50;15.60;66.40
24618;DHT22;12762;51.730;5.356;2023-04-12T11:19:55;15.40;65.10
24618;DHT22;12762;51.730;5.356;2023-04-12T11:22:25;15.30;64.60
24618;DHT22;12762;51.730;5.356;2023-04-12T11:25:00;15.20;64.70
24618;DHT22;12762;51.730;5.356;2023-04-12T11:27:28;15.10;63.90
24618;DHT22;12762;51.730;5.356;2023-04-12T11:29:57;15.00;64.10
24618;DHT22;12762;51.730;5.356;2023-04-12T11:32:29;14.90;63.60
24618;DHT22;12762;51.730;5.356;2023-04-12T11:34:57;14.80;62.80
24618;DHT22;12762;51.730;5.356;2023-04-12T11:37:24;14.70;63.20
24618;DHT22;12762;51.730;5.356;2023-04-12T11:39:55;14.60;63.20
24618;DHT22;12762;51.730;5.356;2023-04-12T11:42:24;14.50;63.30
24618;DHT22;12762;51.730;5.356;2023-04-12T11:44:51;14.50;63.40
24618;DHT22;12762;51.730;5.356;2023-04-12T11:47:27;14.50;63.40
24618;DHT22;12762;51.730;5.356;2023-04-12T11:49:57;14.50;63.70
24618;DHT22;12762;51.730;5.356;2023-04-12T11:52:31;14.70;64.20
24618;DHT22;12762;51.730;5.356;2023-04-12T11:55:01;15.10;64.60
24618;DHT22;12762;51.730;5.356;2023-04-12T11:57:34;15.40;63.60
24618;DHT22;12762;51.730;5.356;2023-04-12T12:00:01;15.70;63.30
24618;DHT22;12762;51.730;5.356;2023-04-12T12:02:33;15.90;62.90
24618;DHT22;12762;51.730;5.356;2023-04-12T12:05:11;16.00;62.00
24618;DHT22;12762;51.730;5.356;2023-04-12T12:07:39;16.00;61.50
24618;DHT22;12762;51.730;5.356;2023-04-12T12:10:06;15.80;60.20
24618;DHT22;12762;51.730;5.356;2023-04-12T12:12:34;15.70;60.60
24618;DHT22;12762;51.730;5.356;2023-04-12T12:15:04;15.50;59.90
24618;DHT22;12762;51.730;5.356;2023-04-12T12:17:35;15.20;59.80
24618;DHT22;12762;51.730;5.356;2023-04-12T12:20:06;15.00;60.10
24618;DHT22;12762;51.730;5.356;2023-04-12T12:22:33;15.10;60.50
24618;DHT22;12762;51.730;5.356;2023-04-12T12:25:00;15.20;59.70
24618;DHT22;12762;51.730;5.356;2023-04-12T12:27:37;15.20;59.20
24618;DHT22;12762;51.730;5.356;2023-04-12T12:30:06;15.20;58.80
24618;DHT22;12762;51.730;5.356;2023-04-12T12:32:35;15.00;58.60
24618;DHT22;12762;51.730;5.356;2023-04-12T12:35:16;14.90;58.50
24618;DHT22;12762;51.730;5.356;2023-04-12T12:37:50;14.80;58.60
24618;DHT22;12762;51.730;5.356;2023-04-12T12:40:27;14.70;58.70
24618;DHT22;12762;51.730;5.356;2023-04-12T12:42:55;14.60;58.70
24618;DHT22;12762;51.730;5.356;2023-04-12T12:45:24;14.50;59.20
24618;DHT22;12762;51.730;5.356;2023-04-12T12:47:58;14.40;59.50
24618;DHT22;12762;51.730;5.356;2023-04-12T12:50:29;14.50;59.80
24618;DHT22;12762;51.730;5.356;2023-04-12T12:52:57;14.50;60.20
24618;DHT22;12762;51.730;5.356;2023-04-12T12:55:27;14.60;60.40
24618;DHT22;12762;51.730;5.356;2023-04-12T12:57:56;14.60;60.20
24618;DHT22;12762;51.730;5.356;2023-04-12T13:00:27;14.60;60.40
24618;DHT22;12762;51.730;5.356;2023-04-12T13:02:54;14.60;60.50
24618;DHT22;12762;51.730;5.356;2023-04-12T13:05:22;14.50;61.20
24618;DHT22;12762;51.730;5.356;2023-04-12T13:07:49;14.40;60.30
24618;DHT22;12762;51.730;5.356;2023-04-12T13:10:16;14.30;60.20
24618;DHT22;12762;51.730;5.356;2023-04-12T13:12:46;14.00;60.50
24618;DHT22;12762;51.730;5.356;2023-04-12T13:15:12;13.60;60.10
24618;DHT22;12762;51.730;5.356;2023-04-12T13:17:43;13.20;60.90
24618;DHT22;12762;51.730;5.356;2023-04-12T13:20:10;12.90;61.60
24618;DHT22;12762;51.730;5.356;2023-04-12T13:22:37;12.70;62.50
24618;DHT22;12762;51.730;5.356;2023-04-12T13:25:04;12.50;63.20
24618;DHT22;12762;51.730;5.356;2023-04-12T13:27:31;12.40;64.00
24618;DHT22;12762;51.730;5.356;2023-04-12T13:29:58;12.30;64.50
24618;DHT22;12762;51.730;5.356;2023-04-12T13:32:25;12.30;65.00
24618;DHT22;12762;51.730;5.356;2023-04-12T13:34:53;12.30;65.40
24618;DHT22;12762;51.730;5.356;2023-04-12T13:37:19;12.30;65.60
24618;DHT22;12762;51.730;5.356;2023-04-12T13:39:46;12.30;65.80
24618;DHT22;12762;51.730;5.356;2023-04-12T13:42:13;12.30;66.10
24618;DHT22;12762;51.730;5.356;2023-04-12T13:44:43;12.30;66.20
24618;DHT22;12762;51.730;5.356;2023-04-12T13:47:10;12.40;66.50
24618;DHT22;12762;51.730;5.356;2023-04-12T13:49:37;12.40;66.50
24618;DHT22;12762;51.730;5.356;2023-04-12T13:52:04;12.40;66.60
24618;DHT22;12762;51.730;5.356;2023-04-12T13:54:31;12.40;66.80
24618;DHT22;12762;51.730;5.356;2023-04-12T13:56:57;12.40;66.80
24618;DHT22;12762;51.730;5.356;2023-04-12T13:59:25;12.40;66.80
24618;DHT22;12762;51.730;5.356;2023-04-12T14:01:55;12.40;66.80
24618;DHT22;12762;51.730;5.356;2023-04-12T14:04:22;12.50;66.80
24618;DHT22;12762;51.730;5.356;2023-04-12T14:06:49;12.50;66.80
24618;DHT22;12762;51.730;5.356;2023-04-12T14:09:29;12.50;66.60
24618;DHT22;12762;51.730;5.356;2023-04-12T14:11:58;12.50;66.30
24618;DHT22;12762;51.730;5.356;2023-04-12T14:14:25;12.50;66.40
24618;DHT22;12762;51.730;5.356;2023-04-12T14:16:54;12.50;66.30
24618;DHT22;12762;51.730;5.356;2023-04-12T14:19:26;12.50;66.30
24618;DHT22;12762;51.730;5.356;2023-04-12T14:21:53;12.50;66.20
24618;DHT22;12762;51.730;5.356;2023-04-12T14:24:20;12.50;66.00
24618;DHT22;12762;51.730;5.356;2023-04-12T14:26:47;12.30;65.70
24618;DHT22;12762;51.730;5.356;2023-04-12T14:29:15;12.20;65.80
24618;DHT22;12762;51.730;5.356;2023-04-12T14:31:43;12.10;65.90
24618;DHT22;12762;51.730;5.356;2023-04-12T14:34:12;12.10;66.00
24618;DHT22;12762;51.730;5.356;2023-04-12T14:36:41;12.00;66.30
24618;DHT22;12762;51.730;5.356;2023-04-12T14:39:07;11.90;66.60
24618;DHT22;12762;51.730;5.356;2023-04-12T14:41:37;11.70;66.20
24618;DHT22;12762;51.730;5.356;2023-04-12T14:44:04;11.20;65.40
24618;DHT22;12762;51.730;5.356;2023-04-12T14:46:31;10.60;65.60
24618;DHT22;12762;51.730;5.356;2023-04-12T14:48:58;10.20;66.10
24618;DHT22;12762;51.730;5.356;2023-04-12T14:51:28;9.90;67.80
24618;DHT22;12762;51.730;5.356;2023-04-12T14:53:55;9.80;68.50
24618;DHT22;12762;51.730;5.356;2023-04-12T14:56:24;9.70;68.90
24618;DHT22;12762;51.730;5.356;2023-04-12T14:58:57;9.60;70.10
24618;DHT22;12762;51.730;5.356;2023-04-12T15:01:24;9.50;69.50
24618;DHT22;12762;51.730;5.356;2023-04-12T15:03:52;9.60;69.90
24618;DHT22;12762;51.730;5.356;2023-04-12T15:06:22;9.60;70.00
24618;DHT22;12762;51.730;5.356;2023-04-12T15:08:51;9.60;70.10
24618;DHT22;12762;51.730;5.356;2023-04-12T15:11:21;9.60;70.10
24618;DHT22;12762;51.730;5.356;2023-04-12T15:13:52;9.60;70.30
24618;DHT22;12762;51.730;5.356;2023-04-12T15:16:19;9.70;70.40
24618;DHT22;12762;51.730;5.356;2023-04-12T15:18:47;9.70;70.50
24618;DHT22;12762;51.730;5.356;2023-04-12T15:21:15;9.70;70.60
24618;DHT22;12762;51.730;5.356;2023-04-12T15:23:42;9.70;70.60
24618;DHT22;12762;51.730;5.356;2023-04-12T15:26:09;9.70;70.80
24618;DHT22;12762;51.730;5.356;2023-04-12T15:28:36;9.80;71.10
24618;DHT22;12762;51.730;5.356;2023-04-12T15:31:03;9.80;71.00
24618;DHT22;12762;51.730;5.356;2023-04-12T15:33:30;9.90;71.10
24618;DHT22;12762;51.730;5.356;2023-04-12T15:36:00;10.00;69.90
24618;DHT22;12762;51.730;5.356;2023-04-12T15:38:28;10.00;69.80
24618;DHT22;12762;51.730;5.356;2023-04-12T15:40:57;10.10;69.70
24618;DHT22;12762;51.730;5.356;2023-04-12T15:43:25;10.10;69.70
24618;DHT22;12762;51.730;5.356;2023-04-12T15:45:52;10.10;69.70
24618;DHT22;12762;51.730;5.356;2023-04-12T15:48:21;10.10;69.80
24618;DHT22;12762;51.730;5.356;2023-04-12T15:50:49;10.20;69.80
24618;DHT22;12762;51.730;5.356;2023-04-12T15:53:20;10.20;70.00
24618;DHT22;12762;51.730;5.356;2023-04-12T15:55:47;10.40;70.20
24618;DHT22;12762;51.730;5.356;2023-04-12T15:58:14;10.60;70.50
24618;DHT22;12762;51.730;5.356;2023-04-12T16:00:41;10.80;70.30
24618;DHT22;12762;51.730;5.356;2023-04-12T16:03:08;10.90;70.00
24618;DHT22;12762;51.730;5.356;2023-04-12T16:05:35;10.90;69.90